createdAt,value
2017-06-27T00:01:41.884Z,16.53
2017-06-27T00:04:10.098Z,13.40
2017-06-27T00:06:37.527Z,15.67
2017-06-27T00:09:04.973Z,14.57
2017-06-27T00:11:33.167Z,15.10
2017-06-27T00:14:00.601Z,15.00
2017-06-27T00:16:28.800Z,11.03
2017-06-27T00:18:56.237Z,14.63
2017-06-27T00:21:24.443Z,14.30
2017-06-27T00:23:51.876Z,15.43
2017-06-27T00:26:19.312Z,11.10
2017-06-27T00:28:47.515Z,13.93
2017-06-27T00:31:14.952Z,16.90
2017-06-27T00:33:43.166Z,13.07
2017-06-27T00:36:10.584Z,11.57
2017-06-27T00:38:38.787Z,14.50
2017-06-27T00:41:06.220Z,16.80
2017-06-27T00:43:34.429Z,17.80
2017-06-27T00:46:01.860Z,15.93
2017-06-27T00:48:29.287Z,14.10
2017-06-27T00:50:57.501Z,14.37
2017-06-27T00:53:24.933Z,24.10
2017-06-27T00:55:53.133Z,16.43
2017-06-27T00:58:20.563Z,13.37
2017-06-27T01:00:48.767Z,11.97
2017-06-27T01:03:16.200Z,16.03
2017-06-27T01:05:44.402Z,12.53
2017-06-27T01:08:11.825Z,11.40
2017-06-27T01:10:40.035Z,13.27
2017-06-27T01:13:07.480Z,14.27
2017-06-27T01:15:34.926Z,13.13
2017-06-27T01:18:02.358Z,19.10
2017-06-27T01:20:30.564Z,16.60
2017-06-27T01:22:58.000Z,11.83
2017-06-27T01:25:26.211Z,11.63
2017-06-27T01:27:53.648Z,16.50
2017-06-27T01:30:21.084Z,17.97
2017-06-27T01:32:49.289Z,14.20
2017-06-27T01:35:16.724Z,14.23
2017-06-27T01:37:44.941Z,14.00
2017-06-27T01:40:12.376Z,16.43
2017-06-27T01:42:39.823Z,12.70
2017-06-27T01:45:07.260Z,11.63
2017-06-27T01:47:41.342Z,15.73
2017-06-27T01:50:08.838Z,12.33
2017-06-27T01:52:37.031Z,15.97
2017-06-27T01:55:04.482Z,11.37
2017-06-27T01:57:32.681Z,12.53
2017-06-27T02:00:00.120Z,16.40
2017-06-27T02:02:27.555Z,12.17
2017-06-27T02:04:55.748Z,11.93
2017-06-27T02:07:23.188Z,13.77
2017-06-27T02:09:51.398Z,15.23
2017-06-27T02:12:18.840Z,12.30
2017-06-27T02:14:46.272Z,18.43
2017-06-27T02:17:14.541Z,12.60
2017-06-27T02:19:42.824Z,14.77
2017-06-27T02:22:11.034Z,15.17
2017-06-27T02:24:38.556Z,13.13
2017-06-27T02:27:06.771Z,12.97
2017-06-27T02:29:34.199Z,14.63
2017-06-27T02:32:01.646Z,12.80
2017-06-27T02:34:29.844Z,12.40
2017-06-27T02:36:57.284Z,14.43
2017-06-27T02:39:24.729Z,13.00
2017-06-27T02:41:52.933Z,19.20
2017-06-27T02:44:20.373Z,14.33
2017-06-27T02:46:47.808Z,12.67
2017-06-27T02:49:15.244Z,16.33
2017-06-27T02:51:42.680Z,13.57
2017-06-27T02:54:10.120Z,14.10
2017-06-27T02:56:37.640Z,12.67
2017-06-27T02:59:05.843Z,12.30
2017-06-27T03:01:33.276Z,13.50
2017-06-27T03:04:01.476Z,14.20
2017-06-27T03:06:28.910Z,16.30
2017-06-27T03:08:57.192Z,17.40
2017-06-27T03:11:25.392Z,17.90
2017-06-27T03:13:52.916Z,12.50
2017-06-27T03:16:21.120Z,14.53
2017-06-27T03:18:48.556Z,13.60
2017-06-27T03:21:16.766Z,15.10
2017-06-27T03:23:44.208Z,16.90
2017-06-27T03:26:11.645Z,16.17
2017-06-27T03:28:39.912Z,17.30
2017-06-27T03:31:08.119Z,15.53
2017-06-27T03:33:35.567Z,14.30
2017-06-27T03:36:03.001Z,14.07
2017-06-27T03:38:31.205Z,24.20
2017-06-27T03:40:58.644Z,18.30
2017-06-27T03:43:26.836Z,14.10
2017-06-27T03:45:54.275Z,16.03
2017-06-27T03:48:21.712Z,15.27
2017-06-27T03:50:49.934Z,15.03
2017-06-27T03:53:17.519Z,21.80
2017-06-27T03:55:44.940Z,15.13
2017-06-27T03:58:12.376Z,13.80
2017-06-27T04:00:39.820Z,14.83
2017-06-27T04:03:08.015Z,15.20
2017-06-27T04:05:35.456Z,14.80
2017-06-27T04:08:03.656Z,14.00
2017-06-27T04:10:31.101Z,18.00
2017-06-27T04:12:58.532Z,12.07
2017-06-27T04:15:25.967Z,12.43
2017-06-27T04:17:53.404Z,16.37
2017-06-27T04:20:20.912Z,13.20
2017-06-27T04:22:49.116Z,14.33
2017-06-27T04:25:16.556Z,14.13
2017-06-27T04:27:43.994Z,15.10
2017-06-27T04:30:12.297Z,12.33
2017-06-27T04:32:39.736Z,15.00
2017-06-27T04:35:07.940Z,15.20
2017-06-27T04:37:35.376Z,13.33
2017-06-27T04:40:03.569Z,16.47
2017-06-27T04:42:31.017Z,16.67
2017-06-27T04:44:58.452Z,15.13
2017-06-27T04:47:26.652Z,11.83
2017-06-27T04:49:54.088Z,15.50
2017-06-27T04:52:22.308Z,12.60
2017-06-27T04:54:49.759Z,16.40
2017-06-27T04:57:17.176Z,16.90
2017-06-27T04:59:45.377Z,17.77
2017-06-27T05:02:12.811Z,12.90
2017-06-27T05:04:40.248Z,13.40
2017-06-27T05:07:07.687Z,11.50
2017-06-27T05:09:35.123Z,15.87
2017-06-27T05:12:02.570Z,14.60
2017-06-27T05:14:30.005Z,15.30
2017-06-27T05:16:57.444Z,13.17
2017-06-27T05:19:25.643Z,13.43
2017-06-27T05:21:53.095Z,15.80
2017-06-27T05:24:20.519Z,12.90
2017-06-27T05:26:47.951Z,14.77
2017-06-27T05:29:15.386Z,11.53
2017-06-27T05:31:42.829Z,13.67
2017-06-27T05:34:10.264Z,14.23
2017-06-27T05:36:37.693Z,12.00
2017-06-27T05:39:05.128Z,13.17
2017-06-27T05:41:32.559Z,13.00
2017-06-27T05:44:00.002Z,12.23
2017-06-27T05:46:27.427Z,11.80
2017-06-27T05:48:54.893Z,11.53
2017-06-27T05:51:23.093Z,16.10
2017-06-27T05:53:50.535Z,15.00
2017-06-27T05:56:18.727Z,12.07
2017-06-27T05:58:46.164Z,16.13
2017-06-27T06:01:14.360Z,11.00
2017-06-27T06:03:41.808Z,12.70
2017-06-27T06:06:09.236Z,12.60
2017-06-27T06:08:36.664Z,14.83
2017-06-27T06:11:04.103Z,11.73
2017-06-27T06:13:31.543Z,11.47
2017-06-27T06:15:58.963Z,11.80
2017-06-27T06:18:27.173Z,11.70
2017-06-27T06:20:54.603Z,15.00
2017-06-27T06:23:23.808Z,13.87
2017-06-27T06:25:52.004Z,11.07
2017-06-27T06:28:19.456Z,14.17
2017-06-27T06:30:46.879Z,11.40
2017-06-27T06:33:15.077Z,13.07
2017-06-27T06:35:42.516Z,15.23
2017-06-27T06:38:09.937Z,14.53
2017-06-27T06:40:37.375Z,13.50
2017-06-27T06:43:04.804Z,14.53
2017-06-27T06:45:32.236Z,15.40
2017-06-27T06:48:00.441Z,11.40
2017-06-27T06:50:27.864Z,9.53
2017-06-27T06:52:55.292Z,10.67
2017-06-27T06:55:22.732Z,10.80
2017-06-27T06:57:50.160Z,10.30
2017-06-27T07:00:17.612Z,12.10
2017-06-27T07:02:45.041Z,17.80
2017-06-27T07:05:12.509Z,10.53
2017-06-27T07:07:40.707Z,10.17
2017-06-27T07:10:08.136Z,11.73
2017-06-27T07:12:35.564Z,13.73
2017-06-27T07:15:03.001Z,10.80
2017-06-27T07:17:30.423Z,9.80
2017-06-27T07:19:58.617Z,12.63
2017-06-27T07:22:26.051Z,12.27
2017-06-27T07:24:54.248Z,13.03
2017-06-27T07:27:21.679Z,10.70
2017-06-27T07:29:49.875Z,10.67
2017-06-27T07:32:17.308Z,16.00
2017-06-27T07:34:45.495Z,11.67
2017-06-27T07:37:12.932Z,10.90
2017-06-27T07:39:40.365Z,9.83
2017-06-27T07:42:07.800Z,15.57
2017-06-27T07:44:35.228Z,8.67
2017-06-27T07:47:02.668Z,11.63
2017-06-27T07:49:30.861Z,8.83
2017-06-27T07:51:58.296Z,9.97
2017-06-27T07:54:26.488Z,9.13
2017-06-27T07:56:53.920Z,9.23
2017-06-27T07:59:22.116Z,15.63
2017-06-27T08:01:49.549Z,12.60
2017-06-27T08:04:17.743Z,11.17
2017-06-27T08:06:45.181Z,8.90
2017-06-27T08:09:12.606Z,9.87
2017-06-27T08:11:40.032Z,11.70
2017-06-27T08:14:07.471Z,12.47
2017-06-27T08:16:34.905Z,14.53
2017-06-27T08:19:02.340Z,10.47
2017-06-27T08:21:29.772Z,10.07
2017-06-27T08:23:57.208Z,10.80
2017-06-27T08:26:24.636Z,12.00
2017-06-27T08:28:52.840Z,17.03
2017-06-27T08:31:20.268Z,11.37
2017-06-27T08:33:48.469Z,10.00
2017-06-27T08:36:15.896Z,10.30
2017-06-27T08:38:44.105Z,14.70
2017-06-27T08:41:11.532Z,12.20
2017-06-27T08:43:39.731Z,12.47
2017-06-27T08:46:07.165Z,11.03
2017-06-27T08:48:34.596Z,14.50
2017-06-27T08:51:02.023Z,9.57
2017-06-27T08:53:29.464Z,13.50
2017-06-27T08:55:56.900Z,12.37
2017-06-27T08:58:24.333Z,8.13
2017-06-27T09:00:51.766Z,10.67
2017-06-27T09:03:19.208Z,13.30
2017-06-27T09:05:46.640Z,12.40
2017-06-27T09:08:14.060Z,9.40
2017-06-27T09:10:41.501Z,11.03
2017-06-27T09:13:08.984Z,11.40
2017-06-27T09:15:37.188Z,12.27
2017-06-27T09:18:04.620Z,7.73
2017-06-27T09:20:32.072Z,8.73
2017-06-27T09:22:59.484Z,15.83
2017-06-27T09:25:26.932Z,13.80
2017-06-27T09:27:54.362Z,10.63
2017-06-27T09:30:21.795Z,10.93
2017-06-27T09:32:49.992Z,12.50
2017-06-27T09:35:17.420Z,9.63
2017-06-27T09:37:44.849Z,9.87
2017-06-27T09:40:12.283Z,10.20
2017-06-27T09:42:39.708Z,11.73
2017-06-27T09:45:07.150Z,10.03
2017-06-27T09:47:34.573Z,10.70
2017-06-27T09:50:02.015Z,10.20
2017-06-27T09:52:29.444Z,12.00
2017-06-27T09:54:56.908Z,12.67
2017-06-27T09:57:24.336Z,7.40
2017-06-27T09:59:52.528Z,8.17
2017-06-27T10:02:19.987Z,9.97
2017-06-27T10:04:47.413Z,9.70
2017-06-27T10:07:14.853Z,10.50
2017-06-27T10:09:42.300Z,8.80
2017-06-27T10:12:09.748Z,10.73
2017-06-27T10:14:37.171Z,9.30
2017-06-27T10:17:04.605Z,8.00
2017-06-27T10:19:32.028Z,7.80
2017-06-27T10:21:59.474Z,8.07
2017-06-27T10:24:26.887Z,7.37
2017-06-27T10:26:54.320Z,12.00
2017-06-27T10:29:21.748Z,6.37
2017-06-27T10:31:49.189Z,8.27
2017-06-27T10:34:16.617Z,8.13
2017-06-27T10:36:44.039Z,7.83
2017-06-27T10:39:11.469Z,8.27
2017-06-27T10:41:38.900Z,7.60
2017-06-27T10:44:06.325Z,8.20
2017-06-27T10:46:33.780Z,7.00
2017-06-27T10:49:01.200Z,6.93
2017-06-27T10:51:28.632Z,7.57
2017-06-27T10:53:56.072Z,6.13
2017-06-27T10:56:23.496Z,6.70
2017-06-27T10:58:50.928Z,9.77
2017-06-27T11:01:18.358Z,6.00
2017-06-27T11:03:45.787Z,6.37
2017-06-27T11:06:13.208Z,9.40
2017-06-27T11:08:40.644Z,8.50
2017-06-27T11:11:08.069Z,6.90
2017-06-27T11:13:35.499Z,6.37
2017-06-27T11:16:02.924Z,5.77
2017-06-27T11:18:30.365Z,5.87
2017-06-27T11:20:57.791Z,4.90
2017-06-27T11:23:25.219Z,4.63
2017-06-27T11:25:52.645Z,4.37
2017-06-27T11:28:20.073Z,5.03
2017-06-27T11:30:47.561Z,6.03
2017-06-27T11:33:15.029Z,6.73
2017-06-27T11:35:42.508Z,5.30
2017-06-27T11:38:09.932Z,5.40
2017-06-27T11:40:37.756Z,5.70
2017-06-27T11:43:05.191Z,9.53
2017-06-27T11:45:33.384Z,5.73
2017-06-27T11:48:00.808Z,5.03
2017-06-27T11:50:28.240Z,5.57
2017-06-27T11:52:55.668Z,4.47
2017-06-27T11:55:23.105Z,4.63
2017-06-27T11:57:50.539Z,5.20
2017-06-27T12:00:44.013Z,5.60
2017-06-27T12:03:23.249Z,4.23
2017-06-27T12:06:03.276Z,6.10
2017-06-27T12:08:30.707Z,4.93
2017-06-27T12:10:58.137Z,4.10
2017-06-27T12:13:25.564Z,6.57
2017-06-27T12:15:53.000Z,4.40
2017-06-27T12:18:20.436Z,3.93
2017-06-27T12:20:47.873Z,3.90
2017-06-27T12:23:34.480Z,5.17
2017-06-27T12:26:01.907Z,4.03
2017-06-27T12:28:30.100Z,5.03
2017-06-27T12:30:57.528Z,5.73
2017-06-27T12:33:25.725Z,3.33
2017-06-27T12:35:53.164Z,2.30
2017-06-27T12:38:21.347Z,3.30
2017-06-27T12:40:49.544Z,3.63
2017-06-27T12:43:16.969Z,2.63
2017-06-27T12:45:45.193Z,2.30
2017-06-27T12:48:12.604Z,1.80
2017-06-27T12:50:40.824Z,3.70
2017-06-27T12:53:08.252Z,2.70
2017-06-27T12:55:35.684Z,2.87
2017-06-27T12:58:03.887Z,4.30
2017-06-27T13:00:31.319Z,2.20
2017-06-27T13:02:58.746Z,3.13
2017-06-27T13:05:26.177Z,3.60
2017-06-27T13:07:53.620Z,4.23
2017-06-27T13:10:21.139Z,11.13
2017-06-27T13:12:48.612Z,3.30
2017-06-27T13:15:16.048Z,3.47
2017-06-27T13:17:43.480Z,3.90
2017-06-27T13:20:10.903Z,5.73
2017-06-27T13:22:38.333Z,3.23
2017-06-27T13:25:05.765Z,2.87
2017-06-27T13:27:33.188Z,3.43
2017-06-27T13:30:00.617Z,4.00
2017-06-27T13:32:28.049Z,6.13
2017-06-27T13:34:55.476Z,2.97
2017-06-27T13:37:22.923Z,3.00
2017-06-27T13:39:50.424Z,2.60
2017-06-27T13:42:18.628Z,3.00
2017-06-27T13:44:46.059Z,2.27
2017-06-27T13:47:14.372Z,2.83
2017-06-27T13:49:41.798Z,2.70
2017-06-27T13:52:09.228Z,3.00
2017-06-27T13:54:36.661Z,3.57
2017-06-27T13:57:04.186Z,2.60
2017-06-27T13:59:31.612Z,2.93
2017-06-27T14:01:59.035Z,4.00
2017-06-27T14:04:26.464Z,5.00
2017-06-27T14:06:53.898Z,3.47
2017-06-27T14:09:21.324Z,3.73
2017-06-27T14:11:48.744Z,4.67
2017-06-27T14:14:16.260Z,4.80
2017-06-27T14:16:43.680Z,3.93
2017-06-27T14:19:11.115Z,3.57
2017-06-27T14:21:38.579Z,3.57
2017-06-27T14:24:05.988Z,3.37
2017-06-27T14:26:33.416Z,3.43
2017-06-27T14:29:00.847Z,5.17
2017-06-27T14:31:28.273Z,4.33
2017-06-27T14:33:55.703Z,5.33
2017-06-27T14:36:23.128Z,5.27
2017-06-27T14:38:50.571Z,3.73
2017-06-27T14:41:17.997Z,7.13
2017-06-27T14:43:45.432Z,4.03
2017-06-27T14:46:12.866Z,4.00
2017-06-27T14:48:40.294Z,4.20
2017-06-27T14:51:07.716Z,4.33
2017-06-27T14:53:35.912Z,3.73
2017-06-27T14:56:03.345Z,4.97
2017-06-27T14:58:31.543Z,5.10
2017-06-27T15:00:58.972Z,5.23
2017-06-27T15:03:26.400Z,4.93
2017-06-27T15:05:53.845Z,4.03
2017-06-27T15:08:21.272Z,4.70
2017-06-27T15:10:48.704Z,3.80
2017-06-27T15:13:16.892Z,3.80
2017-06-27T15:15:44.328Z,3.77
2017-06-27T15:18:11.753Z,4.37
2017-06-27T15:20:39.186Z,4.23
2017-06-27T15:23:06.614Z,4.33
2017-06-27T15:25:34.045Z,3.43
2017-06-27T15:28:01.469Z,3.80
2017-06-27T15:30:28.906Z,4.37
2017-06-27T15:32:56.335Z,4.67
2017-06-27T15:35:23.768Z,4.73
2017-06-27T15:37:51.196Z,4.70
2017-06-27T15:40:18.630Z,4.40
2017-06-27T15:42:46.276Z,4.27
2017-06-27T15:45:13.729Z,5.30
2017-06-27T15:47:41.143Z,3.00
2017-06-27T15:50:08.572Z,3.93
2017-06-27T15:52:36.004Z,6.27
2017-06-27T15:55:03.428Z,4.13
2017-06-27T15:57:31.625Z,5.60
2017-06-27T15:59:59.055Z,6.40
2017-06-27T16:02:26.492Z,5.40
2017-06-27T16:04:53.968Z,5.07
2017-06-27T16:07:21.397Z,4.40
2017-06-27T16:09:48.821Z,4.27
2017-06-27T16:12:16.252Z,5.30
2017-06-27T16:14:43.677Z,4.80
2017-06-27T16:17:11.108Z,6.57
2017-06-27T16:19:38.540Z,4.97
2017-06-27T16:22:05.976Z,4.53
2017-06-27T16:24:33.396Z,7.47
2017-06-27T16:27:00.832Z,4.43
2017-06-27T16:29:28.260Z,6.13
2017-06-27T16:31:55.696Z,6.80
2017-06-27T16:34:23.120Z,7.00
2017-06-27T16:36:50.556Z,6.87
2017-06-27T16:39:17.992Z,5.93
2017-06-27T16:41:45.425Z,7.63
2017-06-27T16:44:12.857Z,7.77
2017-06-27T16:46:40.283Z,9.30
2017-06-27T16:49:07.719Z,8.50
2017-06-27T16:51:35.153Z,7.73
2017-06-27T16:54:02.580Z,8.10
2017-06-27T16:56:30.008Z,7.43
2017-06-27T16:58:57.436Z,6.83
2017-06-27T17:01:24.860Z,7.70
2017-06-27T17:03:52.328Z,11.77
2017-06-27T17:06:20.548Z,7.07
2017-06-27T17:08:47.959Z,7.17
2017-06-27T17:11:16.152Z,6.80
2017-06-27T17:13:43.596Z,11.13
2017-06-27T17:16:11.784Z,7.33
2017-06-27T17:18:39.216Z,7.60
2017-06-27T17:21:06.636Z,7.13
2017-06-27T17:23:34.068Z,8.63
2017-06-27T17:26:01.496Z,6.47
2017-06-27T17:28:28.924Z,6.03
2017-06-27T17:30:56.353Z,9.17
2017-06-27T17:33:23.796Z,7.30
2017-06-27T17:35:51.228Z,8.03
2017-06-27T17:38:19.424Z,10.50
2017-06-27T17:40:46.861Z,7.67
2017-06-27T17:43:15.053Z,6.80
2017-06-27T17:45:42.485Z,5.17
2017-06-27T17:48:10.684Z,4.07
2017-06-27T17:50:38.112Z,4.80
2017-06-27T17:53:06.306Z,3.27
2017-06-27T17:55:33.738Z,4.50
2017-06-27T17:58:01.160Z,4.07
2017-06-27T18:00:28.596Z,2.83
2017-06-27T18:02:56.065Z,2.60
2017-06-27T18:05:23.497Z,2.80
2017-06-27T18:07:50.924Z,3.00
2017-06-27T18:10:19.120Z,3.13
2017-06-27T18:12:46.543Z,3.30
2017-06-27T18:15:13.972Z,2.87
2017-06-27T18:17:41.717Z,3.93
2017-06-27T18:20:09.140Z,1.93
2017-06-27T18:22:36.570Z,2.93
2017-06-27T18:25:03.992Z,2.63
2017-06-27T18:27:31.425Z,3.37
2017-06-27T18:29:58.876Z,3.17
2017-06-27T18:32:26.308Z,5.90
2017-06-27T18:34:53.736Z,2.00
2017-06-27T18:37:21.173Z,2.50
2017-06-27T18:39:48.602Z,3.13
2017-06-27T18:42:16.034Z,2.87
2017-06-27T18:44:43.456Z,2.47
2017-06-27T18:47:10.888Z,2.67
2017-06-27T18:49:38.312Z,3.17
2017-06-27T18:52:06.512Z,3.53
2017-06-27T18:54:33.940Z,2.33
2017-06-27T18:57:02.151Z,4.57
2017-06-27T18:59:29.583Z,3.10
2017-06-27T19:01:57.016Z,2.83
2017-06-27T19:04:24.462Z,3.00
2017-06-27T19:06:51.892Z,3.30
2017-06-27T19:09:19.315Z,2.63
2017-06-27T19:11:46.748Z,4.93
2017-06-27T19:14:15.208Z,3.73
2017-06-27T19:16:42.640Z,3.20
2017-06-27T19:19:10.072Z,3.83
2017-06-27T19:21:37.501Z,3.87
2017-06-27T19:24:05.696Z,4.17
2017-06-27T19:26:33.136Z,4.87
2017-06-27T19:29:01.323Z,3.40
2017-06-27T19:31:28.864Z,3.40
2017-06-27T19:33:56.300Z,3.80
2017-06-27T19:36:23.800Z,3.13
2017-06-27T19:38:51.232Z,3.70
2017-06-27T19:41:18.657Z,3.90
2017-06-27T19:43:47.171Z,5.40
2017-06-27T19:46:15.479Z,4.20
2017-06-27T19:48:43.010Z,4.00
2017-06-27T19:51:11.196Z,3.93
2017-06-27T19:53:38.625Z,3.53
2017-06-27T19:56:06.052Z,3.60
2017-06-27T19:58:33.484Z,4.60
2017-06-27T20:01:01.008Z,3.80
2017-06-27T20:03:29.218Z,4.10
2017-06-27T20:05:57.413Z,3.97
2017-06-27T20:08:24.852Z,3.47
2017-06-27T20:10:52.276Z,4.70
2017-06-27T20:13:20.560Z,3.97
2017-06-27T20:15:48.739Z,4.07
2017-06-27T20:18:16.189Z,4.53
2017-06-27T20:20:43.601Z,3.80
2017-06-27T20:23:11.032Z,6.30
2017-06-27T20:25:38.456Z,7.00
2017-06-27T20:28:05.888Z,4.00
2017-06-27T20:30:33.324Z,4.43
2017-06-27T20:33:00.751Z,4.83
2017-06-27T20:35:28.283Z,4.60
2017-06-27T20:37:56.468Z,5.13
2017-06-27T20:40:23.904Z,4.33
2017-06-27T20:42:52.097Z,5.50
2017-06-27T20:45:19.529Z,4.77
2017-06-27T20:47:46.960Z,5.50
2017-06-27T20:50:15.418Z,5.90
2017-06-27T20:52:42.841Z,5.23
2017-06-27T20:55:10.263Z,5.20
2017-06-27T20:57:37.693Z,4.90
2017-06-27T21:00:05.120Z,5.07
2017-06-27T21:02:32.544Z,4.60
2017-06-27T21:04:59.980Z,5.10
2017-06-27T21:07:27.404Z,5.10
2017-06-27T21:09:54.836Z,5.53
2017-06-27T21:12:22.255Z,4.83
2017-06-27T21:14:49.736Z,7.47
2017-06-27T21:17:17.929Z,5.40
2017-06-27T21:19:45.380Z,5.27
2017-06-27T21:22:12.800Z,5.53
2017-06-27T21:24:40.231Z,5.80
2017-06-27T21:27:07.668Z,5.33
2017-06-27T21:29:35.093Z,5.87
2017-06-27T21:32:03.300Z,6.27
2017-06-27T21:34:30.724Z,5.40
2017-06-27T21:36:58.924Z,6.30
2017-06-27T21:39:26.344Z,5.50
2017-06-27T21:41:53.775Z,6.40
2017-06-27T21:44:21.220Z,6.43
2017-06-27T21:46:49.432Z,5.20
2017-06-27T21:49:16.921Z,15.23
2017-06-27T21:51:45.105Z,6.10
2017-06-27T21:54:12.541Z,6.33
2017-06-27T21:56:40.736Z,6.27
2017-06-27T21:59:08.167Z,6.43
2017-06-27T22:01:35.597Z,6.80
2017-06-27T22:04:03.020Z,7.07
2017-06-27T22:06:30.452Z,6.60
2017-06-27T22:08:57.876Z,6.93
2017-06-27T22:11:25.308Z,8.30
2017-06-27T22:13:52.752Z,6.00
2017-06-27T22:16:20.186Z,6.70
2017-06-27T22:18:47.608Z,9.70
2017-06-27T22:21:15.029Z,6.20
2017-06-27T22:23:42.465Z,6.70
2017-06-27T22:26:09.889Z,8.33
2017-06-27T22:28:37.316Z,6.97
